Time;durP1;ratioP1;P1;durP2;ratioP2;P2;SDS_P1;SDS_P2;PMS_P1;PMS_P2;Temp;Humidity;BMP_temperature;BMP_pressure;BME280_temperature;BME280_humidity;BME280_pressure;Samples;Min_cycle;Max_cycle;Signal;HPM_P1;HPM_P2
2022/10/13 00:00:41;;;;;;;2.88;2.47;;;;;;;;;;5118698;28;20199;-65
2022/10/13 00:03:09;;;;;;;2.63;2.42;;;;;;;;;;5118478;28;20230;-65
2022/10/13 00:05:41;;;;;;;3.00;2.80;;;;;;;;;;5118907;28;20933;-65
2022/10/13 00:08:09;;;;;;;2.63;2.42;;;;;;;;;;5119900;28;20203;-65
2022/10/13 00:10:38;;;;;;;2.42;2.33;;;;;;;;;;5119531;28;20207;-65
2022/10/13 00:13:06;;;;;;;2.78;2.53;;;;;;;;;;5119704;28;20199;-65
2022/10/13 00:15:38;;;;;;;2.45;2.28;;;;;;;;;;5119349;28;20720;-65
2022/10/13 00:18:06;;;;;;;2.42;2.22;;;;;;;;;;5119713;28;20260;-66
2022/10/13 00:20:34;;;;;;;2.80;2.60;;;;;;;;;;5119610;28;20532;-65
2022/10/13 00:23:02;;;;;;;2.70;2.50;;;;;;;;;;5119390;28;20210;-65
2022/10/13 00:25:30;;;;;;;2.70;2.50;;;;;;;;;;5119852;28;20238;-65
2022/10/13 00:27:57;;;;;;;2.58;2.33;;;;;;;;;;5119831;28;20257;-66
2022/10/13 00:30:25;;;;;;;2.63;2.45;;;;;;;;;;5119301;28;20195;-65
2022/10/13 00:32:55;;;;;;;3.08;2.78;;;;;;;;;;5119160;28;20199;-65
2022/10/13 00:35:22;;;;;;;2.50;2.30;;;;;;;;;;5119778;28;20591;-65
2022/10/13 00:37:52;;;;;;;2.78;2.58;;;;;;;;;;5119733;28;20253;-65
2022/10/13 00:40:19;;;;;;;2.40;2.20;;;;;;;;;;5118631;28;20231;-66
2022/10/13 00:42:48;;;;;;;2.70;2.50;;;;;;;;;;5119430;28;20207;-65
2022/10/13 00:45:26;;;;;;;2.60;2.40;;;;;;;;;;5118920;28;20213;-65
2022/10/13 00:47:57;;;;;;;2.63;2.42;;;;;;;;;;5119479;28;20199;-65
2022/10/13 00:50:26;;;;;;;2.45;2.30;;;;;;;;;;5118891;28;20230;-66
2022/10/13 00:52:54;;;;;;;2.78;2.58;;;;;;;;;;5119347;28;20260;-66
2022/10/13 00:55:24;;;;;;;2.90;2.70;;;;;;;;;;5118944;28;20309;-65
2022/10/13 00:57:54;;;;;;;2.70;2.50;;;;;;;;;;5118498;28;20311;-65
2022/10/13 01:00:22;;;;;;;2.70;2.50;;;;;;;;;;5119401;28;20226;-65
2022/10/13 01:02:50;;;;;;;2.67;2.47;;;;;;;;;;5119008;28;20210;-65
2022/10/13 01:05:20;;;;;;;2.85;2.65;;;;;;;;;;5118722;28;20573;-66
2022/10/13 01:07:49;;;;;;;2.33;2.22;;;;;;;;;;5119172;28;20202;-66
2022/10/13 01:10:23;;;;;;;2.85;2.65;;;;;;;;;;5118552;28;20276;-65
2022/10/13 01:12:59;;;;;;;3.08;2.58;;;;;;;;;;5118595;28;20238;-66
2022/10/13 01:15:29;;;;;;;2.80;2.60;;;;;;;;;;5118771;28;20227;-65
2022/10/13 01:18:00;;;;;;;2.72;2.53;;;;;;;;;;5118688;28;20228;-65
2022/10/13 01:20:46;;;;;;;2.50;2.30;;;;;;;;;;5118760;28;20523;-65
2022/10/13 01:23:31;;;;;;;3.08;2.65;;;;;;;;;;5118975;28;20203;-66
2022/10/13 01:26:09;;;;;;;2.60;2.40;;;;;;;;;;5117947;28;20230;-65
2022/10/13 01:28:46;;;;;;;2.60;2.40;;;;;;;;;;5117508;28;20203;-65
2022/10/13 01:31:19;;;;;;;2.60;2.40;;;;;;;;;;5117802;28;20588;-65
2022/10/13 01:33:51;;;;;;;2.80;2.60;;;;;;;;;;5117453;28;20260;-65
2022/10/13 01:36:25;;;;;;;3.30;2.78;;;;;;;;;;5117568;28;20500;-65
2022/10/13 01:38:56;;;;;;;2.78;2.50;;;;;;;;;;5118145;28;20198;-65
2022/10/13 01:41:27;;;;;;;2.55;2.38;;;;;;;;;;5118636;28;20246;-65
2022/10/13 01:43:58;;;;;;;2.83;2.50;;;;;;;;;;5118642;28;20202;-65
2022/10/13 01:46:29;;;;;;;2.75;2.55;;;;;;;;;;5118636;28;20606;-65
2022/10/13 01:48:59;;;;;;;2.72;2.53;;;;;;;;;;5117914;28;20224;-65
2022/10/13 01:51:29;;;;;;;2.90;2.70;;;;;;;;;;5118564;28;20203;-65
2022/10/13 01:53:56;;;;;;;2.85;2.65;;;;;;;;;;5118281;28;20195;-65
2022/10/13 01:56:25;;;;;;;2.72;2.53;;;;;;;;;;5117754;28;20205;-65
2022/10/13 01:58:53;;;;;;;2.80;2.60;;;;;;;;;;5117704;28;20195;-65
2022/10/13 02:01:25;;;;;;;2.80;2.60;;;;;;;;;;5118350;28;20202;-66
2022/10/13 02:03:59;;;;;;;2.78;2.58;;;;;;;;;;5117746;28;20210;-66
2022/10/13 02:06:31;;;;;;;2.70;2.50;;;;;;;;;;5117402;28;20230;-65
2022/10/13 02:09:02;;;;;;;2.92;2.72;;;;;;;;;;5116686;28;20195;-65
2022/10/13 02:11:30;;;;;;;3.00;2.80;;;;;;;;;;5117874;28;20203;-66
2022/10/13 02:14:01;;;;;;;2.70;2.50;;;;;;;;;;5117584;28;20594;-65
2022/10/13 02:16:31;;;;;;;2.85;2.65;;;;;;;;;;5117413;28;20207;-66
2022/10/13 02:19:01;;;;;;;2.78;2.58;;;;;;;;;;5097888;28;20311;-65
2022/10/13 02:21:29;;;;;;;2.75;2.55;;;;;;;;;;5097495;28;20214;-65
2022/10/13 02:23:57;;;;;;;2.80;2.60;;;;;;;;;;5097127;28;20234;-65
2022/10/13 02:26:25;;;;;;;3.17;2.88;;;;;;;;;;5096712;28;20234;-65
2022/10/13 02:28:53;;;;;;;2.65;2.45;;;;;;;;;;5117844;28;20494;-65
2022/10/13 02:31:21;;;;;;;2.63;2.42;;;;;;;;;;5117789;28;20229;-65
2022/10/13 02:33:49;;;;;;;2.72;2.53;;;;;;;;;;5117443;28;20297;-65
2022/10/13 02:36:18;;;;;;;2.88;2.67;;;;;;;;;;5117717;28;20191;-65
2022/10/13 02:38:46;;;;;;;2.90;2.70;;;;;;;;;;5116836;28;20257;-65
2022/10/13 02:41:14;;;;;;;2.72;2.53;;;;;;;;;;5117905;28;20338;-65
2022/10/13 02:43:42;;;;;;;3.03;2.78;;;;;;;;;;5117882;28;20563;-65
2022/10/13 02:46:10;;;;;;;2.60;2.40;;;;;;;;;;5117463;28;20262;-65
2022/10/13 02:48:39;;;;;;;2.72;2.53;;;;;;;;;;5117104;28;20260;-65
2022/10/13 02:51:07;;;;;;;2.70;2.50;;;;;;;;;;5117758;28;20207;-65
2022/10/13 02:53:36;;;;;;;2.92;2.72;;;;;;;;;;5117892;28;20203;-65
2022/10/13 02:56:05;;;;;;;2.60;2.40;;;;;;;;;;5117572;28;20210;-65
2022/10/13 02:58:34;;;;;;;2.75;2.55;;;;;;;;;;5117026;28;20199;-65
2022/10/13 03:01:06;;;;;;;2.90;2.70;;;;;;;;;;5117585;28;20620;-66
2022/10/13 03:03:34;;;;;;;2.63;2.42;;;;;;;;;;5117671;28;20490;-65
2022/10/13 03:06:02;;;;;;;2.70;2.50;;;;;;;;;;5117583;28;20579;-65
2022/10/13 03:08:29;;;;;;;2.90;2.70;;;;;;;;;;5120771;28;20199;-65
2022/10/13 03:10:59;;;;;;;2.80;2.60;;;;;;;;;;5120814;28;20278;-66
2022/10/13 03:13:26;;;;;;;2.80;2.60;;;;;;;;;;5120489;28;20206;-66
2022/10/13 03:15:54;;;;;;;3.05;2.85;;;;;;;;;;5120234;28;20578;-65
2022/10/13 03:18:22;;;;;;;2.95;2.75;;;;;;;;;;5119637;28;20199;-65
2022/10/13 03:20:56;;;;;;;2.92;2.72;;;;;;;;;;5120285;28;20567;-65
2022/10/13 03:23:26;;;;;;;2.45;2.25;;;;;;;;;;5120161;28;20536;-66
2022/10/13 03:25:54;;;;;;;2.90;2.70;;;;;;;;;;5120375;28;20483;-65
2022/10/13 03:28:23;;;;;;;2.80;2.60;;;;;;;;;;5120488;28;20276;-65
2022/10/13 03:30:51;;;;;;;2.78;2.58;;;;;;;;;;5121161;28;20203;-66
2022/10/13 03:33:19;;;;;;;3.03;2.83;;;;;;;;;;5119656;28;20569;-65
2022/10/13 03:35:47;;;;;;;2.83;2.63;;;;;;;;;;5120771;28;20361;-65
2022/10/13 03:38:15;;;;;;;3.00;2.80;;;;;;;;;;5120593;28;20234;-65
2022/10/13 03:40:43;;;;;;;3.00;2.80;;;;;;;;;;5120647;28;20649;-65
2022/10/13 03:43:11;;;;;;;2.80;2.60;;;;;;;;;;5120495;28;20203;-65
2022/10/13 03:45:41;;;;;;;2.83;2.63;;;;;;;;;;5120864;28;20647;-65
2022/10/13 03:48:08;;;;;;;3.00;2.80;;;;;;;;;;5119938;28;20637;-65
2022/10/13 03:50:36;;;;;;;3.13;2.92;;;;;;;;;;5120097;28;20307;-65
2022/10/13 03:53:04;;;;;;;2.90;2.70;;;;;;;;;;5120194;28;20203;-65
2022/10/13 03:55:32;;;;;;;2.70;2.50;;;;;;;;;;5120295;28;20302;-65
2022/10/13 03:57:59;;;;;;;2.83;2.63;;;;;;;;;;5119063;28;20206;-66
2022/10/13 04:00:28;;;;;;;2.60;2.40;;;;;;;;;;5118544;28;20203;-66
2022/10/13 04:02:57;;;;;;;2.90;2.70;;;;;;;;;;5119028;28;20211;-65
2022/10/13 04:05:25;;;;;;;3.00;2.70;;;;;;;;;;5118165;28;20298;-65
2022/10/13 04:07:52;;;;;;;2.80;2.60;;;;;;;;;;5118312;28;20222;-65
2022/10/13 04:10:20;;;;;;;3.00;2.70;;;;;;;;;;5118969;28;20312;-65
2022/10/13 04:12:49;;;;;;;2.78;2.58;;;;;;;;;;5119731;28;20203;-65
2022/10/13 04:15:16;;;;;;;2.97;2.78;;;;;;;;;;5119281;28;20268;-65
2022/10/13 04:17:44;;;;;;;2.90;2.70;;;;;;;;;;5118434;28;20290;-65
2022/10/13 04:20:13;;;;;;;2.78;2.58;;;;;;;;;;5117665;28;20290;-65
2022/10/13 04:22:41;;;;;;;2.80;2.60;;;;;;;;;;5119056;28;20246;-65
2022/10/13 04:25:09;;;;;;;2.90;2.70;;;;;;;;;;5118390;28;20233;-65
2022/10/13 04:27:38;;;;;;;3.00;2.80;;;;;;;;;;5117655;28;20254;-65
2022/10/13 04:30:07;;;;;;;3.00;2.80;;;;;;;;;;5117164;28;20272;-65
2022/10/13 04:32:35;;;;;;;2.95;2.75;;;;;;;;;;5117350;28;20236;-65
2022/10/13 04:35:05;;;;;;;3.10;2.80;;;;;;;;;;5116646;28;20252;-66
2022/10/13 04:37:34;;;;;;;2.92;2.72;;;;;;;;;;5118596;28;20302;-65
2022/10/13 04:40:02;;;;;;;2.92;2.72;;;;;;;;;;5117416;28;20243;-66
2022/10/13 04:42:29;;;;;;;2.67;2.50;;;;;;;;;;5117835;28;20358;-65
2022/10/13 04:44:57;;;;;;;3.30;3.08;;;;;;;;;;5117141;28;20226;-66
2022/10/13 04:47:24;;;;;;;3.03;2.83;;;;;;;;;;5106237;28;20312;-65
2022/10/13 04:49:52;;;;;;;2.90;2.70;;;;;;;;;;5096049;28;20204;-65
2022/10/13 04:52:19;;;;;;;2.80;2.60;;;;;;;;;;5096655;28;20306;-65
2022/10/13 04:54:48;;;;;;;2.95;2.75;;;;;;;;;;5099923;28;20206;-66
2022/10/13 04:57:16;;;;;;;2.83;2.63;;;;;;;;;;5116456;28;20231;-65
2022/10/13 04:59:43;;;;;;;3.10;2.83;;;;;;;;;;5115953;28;20207;-65
2022/10/13 05:02:11;;;;;;;3.00;2.80;;;;;;;;;;5115730;28;20289;-65
2022/10/13 05:04:39;;;;;;;3.03;2.83;;;;;;;;;;5115779;28;20675;-65
2022/10/13 05:07:07;;;;;;;3.28;3.00;;;;;;;;;;5115571;28;20333;-65
2022/10/13 05:09:34;;;;;;;3.20;3.00;;;;;;;;;;5103225;28;20208;-65
2022/10/13 05:12:03;;;;;;;2.70;2.50;;;;;;;;;;5095558;28;20294;-65
2022/10/13 05:14:33;;;;;;;2.75;2.50;;;;;;;;;;5096243;28;20239;-65
2022/10/13 05:17:01;;;;;;;2.92;2.72;;;;;;;;;;5115405;28;20317;-65
2022/10/13 05:19:28;;;;;;;2.60;2.40;;;;;;;;;;5115483;28;20285;-65
2022/10/13 05:21:56;;;;;;;2.72;2.53;;;;;;;;;;5115557;28;20285;-65
2022/10/13 05:24:29;;;;;;;2.83;2.63;;;;;;;;;;5115447;28;20602;-65
2022/10/13 05:26:57;;;;;;;3.05;2.85;;;;;;;;;;5094772;28;20196;-65
2022/10/13 05:29:26;;;;;;;2.80;2.60;;;;;;;;;;5094980;28;20306;-65
2022/10/13 05:31:54;;;;;;;2.70;2.50;;;;;;;;;;5119355;27;20238;-65
2022/10/13 05:34:21;;;;;;;3.03;2.83;;;;;;;;;;5135934;27;20202;-65
2022/10/13 05:36:49;;;;;;;2.88;2.67;;;;;;;;;;5114600;28;20272;-66
2022/10/13 05:39:16;;;;;;;2.95;2.75;;;;;;;;;;5115350;28;20202;-65
2022/10/13 05:41:44;;;;;;;2.83;2.63;;;;;;;;;;5114913;28;20306;-65
2022/10/13 05:44:11;;;;;;;2.70;2.50;;;;;;;;;;5115103;28;20284;-65
2022/10/13 05:46:40;;;;;;;2.70;2.50;;;;;;;;;;5114596;28;20232;-65
2022/10/13 05:49:08;;;;;;;3.50;3.20;;;;;;;;;;5114240;28;20227;-65
2022/10/13 05:51:37;;;;;;;2.60;2.40;;;;;;;;;;5113446;28;20301;-65
2022/10/13 05:54:07;;;;;;;2.78;2.58;;;;;;;;;;5114161;28;20199;-66
2022/10/13 05:56:39;;;;;;;2.75;2.55;;;;;;;;;;5114232;28;20292;-65
2022/10/13 05:59:09;;;;;;;2.70;2.50;;;;;;;;;;5115161;28;20282;-65
2022/10/13 06:01:38;;;;;;;3.55;2.88;;;;;;;;;;5114224;28;20199;-66
2022/10/13 06:04:09;;;;;;;3.10;2.75;;;;;;;;;;5114763;28;20203;-65
2022/10/13 06:06:36;;;;;;;2.67;2.47;;;;;;;;;;5115584;28;20234;-66
2022/10/13 06:09:04;;;;;;;2.90;2.70;;;;;;;;;;5115604;28;20313;-65
2022/10/13 06:11:31;;;;;;;3.05;2.85;;;;;;;;;;5115583;28;20207;-65
2022/10/13 06:13:58;;;;;;;2.90;2.70;;;;;;;;;;5116565;28;20227;-65
2022/10/13 06:16:26;;;;;;;2.90;2.70;;;;;;;;;;5114085;28;20835;-66
2022/10/13 06:18:54;;;;;;;2.90;2.60;;;;;;;;;;5115163;28;20575;-65
2022/10/13 06:21:23;;;;;;;3.03;2.72;;;;;;;;;;5114916;28;20203;-65
2022/10/13 06:23:50;;;;;;;2.60;2.40;;;;;;;;;;5115510;28;20282;-65
2022/10/13 06:26:18;;;;;;;2.75;2.55;;;;;;;;;;5115738;28;20199;-65
2022/10/13 06:28:46;;;;;;;3.03;2.83;;;;;;;;;;5114985;28;20219;-65
2022/10/13 06:31:13;;;;;;;3.05;2.85;;;;;;;;;;5114925;28;20647;-65
2022/10/13 06:33:41;;;;;;;2.85;2.65;;;;;;;;;;5114571;28;20305;-65
2022/10/13 06:36:09;;;;;;;2.92;2.63;;;;;;;;;;5115198;28;20203;-65
2022/10/13 06:38:38;;;;;;;2.83;2.63;;;;;;;;;;5115609;28;20195;-65
2022/10/13 06:41:06;;;;;;;2.97;2.78;;;;;;;;;;5114873;28;20269;-65
2022/10/13 06:43:35;;;;;;;3.03;2.83;;;;;;;;;;5118469;28;20199;-65
2022/10/13 06:46:03;;;;;;;2.70;2.42;;;;;;;;;;5118523;28;20207;-65
2022/10/13 06:48:30;;;;;;;3.38;2.78;;;;;;;;;;5118397;28;20235;-66
2022/10/13 06:51:01;;;;;;;3.30;3.05;;;;;;;;;;5119108;28;20812;-65
2022/10/13 06:53:28;;;;;;;2.83;2.63;;;;;;;;;;5119203;28;20569;-65
2022/10/13 06:56:00;;;;;;;3.30;3.00;;;;;;;;;;5118938;28;20203;-66
2022/10/13 06:58:28;;;;;;;3.92;3.17;;;;;;;;;;5119077;28;20207;-66
2022/10/13 07:00:55;;;;;;;3.03;2.75;;;;;;;;;;5119573;28;20238;-65
2022/10/13 07:03:24;;;;;;;3.30;3.10;;;;;;;;;;5118187;28;20207;-65
2022/10/13 07:05:51;;;;;;;3.00;2.80;;;;;;;;;;5118398;28;20199;-65
2022/10/13 07:08:19;;;;;;;2.97;2.78;;;;;;;;;;5118033;28;20309;-65
2022/10/13 07:10:47;;;;;;;3.20;2.90;;;;;;;;;;5118361;28;20206;-65
2022/10/13 07:13:16;;;;;;;3.17;2.97;;;;;;;;;;5118731;28;20571;-65
2022/10/13 07:15:43;;;;;;;2.92;2.72;;;;;;;;;;5118072;28;20276;-65
2022/10/13 07:18:11;;;;;;;2.80;2.60;;;;;;;;;;5118525;28;20303;-65
2022/10/13 07:20:38;;;;;;;3.00;2.80;;;;;;;;;;5117675;28;20263;-65
2022/10/13 07:23:07;;;;;;;3.10;2.90;;;;;;;;;;5118557;28;20260;-65
2022/10/13 07:25:34;;;;;;;3.13;2.90;;;;;;;;;;5117689;28;20213;-66
2022/10/13 07:28:02;;;;;;;3.00;2.80;;;;;;;;;;5117202;28;20275;-65
2022/10/13 07:30:31;;;;;;;3.30;3.10;;;;;;;;;;5117502;28;20226;-65
2022/10/13 07:32:58;;;;;;;3.08;2.88;;;;;;;;;;5118240;28;20217;-65
2022/10/13 07:35:26;;;;;;;3.10;2.90;;;;;;;;;;5118754;28;20203;-65
2022/10/13 07:37:54;;;;;;;3.10;2.90;;;;;;;;;;5118168;28;20244;-66
2022/10/13 07:40:21;;;;;;;2.40;2.30;;;;;;;;;;5117604;28;20522;-65
2022/10/13 07:42:48;;;;;;;3.25;3.05;;;;;;;;;;5118415;28;20297;-65
2022/10/13 07:45:16;;;;;;;2.92;2.72;;;;;;;;;;5117238;28;20238;-65
2022/10/13 07:47:46;;;;;;;3.28;2.90;;;;;;;;;;5117505;28;20330;-65
2022/10/13 07:50:13;;;;;;;2.90;2.60;;;;;;;;;;5117561;28;20242;-65
2022/10/13 07:52:41;;;;;;;3.00;2.80;;;;;;;;;;5117916;28;20195;-65
2022/10/13 07:55:09;;;;;;;3.28;3.08;;;;;;;;;;5115933;28;20281;-65
2022/10/13 07:57:37;;;;;;;3.25;3.00;;;;;;;;;;5116149;28;20195;-65
2022/10/13 08:00:05;;;;;;;2.83;2.63;;;;;;;;;;5117342;28;20465;-65
2022/10/13 08:02:33;;;;;;;2.80;2.60;;;;;;;;;;5116900;28;20310;-65
2022/10/13 08:05:03;;;;;;;2.70;2.50;;;;;;;;;;5116714;28;20289;-65
2022/10/13 08:07:31;;;;;;;2.90;2.70;;;;;;;;;;5115523;28;20657;-65
2022/10/13 08:09:59;;;;;;;2.83;2.63;;;;;;;;;;5116998;28;20229;-66
2022/10/13 08:12:26;;;;;;;2.65;2.45;;;;;;;;;;5117269;28;20235;-66
2022/10/13 08:14:54;;;;;;;3.10;2.80;;;;;;;;;;5117487;28;20623;-66
2022/10/13 08:17:22;;;;;;;3.13;2.63;;;;;;;;;;5117400;28;20203;-65
2022/10/13 08:19:51;;;;;;;2.67;2.47;;;;;;;;;;5116716;28;20264;-65
2022/10/13 08:22:20;;;;;;;2.50;2.30;;;;;;;;;;5117887;28;20449;-65
2022/10/13 08:24:48;;;;;;;3.00;2.80;;;;;;;;;;5116755;28;20213;-65
2022/10/13 08:27:18;;;;;;;2.53;2.33;;;;;;;;;;5115886;28;20191;-65
2022/10/13 08:29:48;;;;;;;2.67;2.47;;;;;;;;;;5115152;28;20223;-66
2022/10/13 08:32:19;;;;;;;2.88;2.67;;;;;;;;;;5116531;28;20203;-65
2022/10/13 08:34:47;;;;;;;2.38;2.28;;;;;;;;;;5116259;28;20199;-65
2022/10/13 08:37:15;;;;;;;2.70;2.50;;;;;;;;;;5116865;28;20290;-65
2022/10/13 08:39:44;;;;;;;2.80;2.60;;;;;;;;;;5115690;28;20235;-65
2022/10/13 08:42:16;;;;;;;2.70;2.50;;;;;;;;;;5116814;28;20268;-65
2022/10/13 08:44:46;;;;;;;2.33;2.22;;;;;;;;;;5116279;28;20195;-65
2022/10/13 08:47:19;;;;;;;2.33;2.20;;;;;;;;;;5116502;28;20195;-65
2022/10/13 08:49:46;;;;;;;2.60;2.40;;;;;;;;;;5116554;28;20222;-66
2022/10/13 08:52:17;;;;;;;2.40;2.30;;;;;;;;;;5116339;28;20584;-65
2022/10/13 08:54:47;;;;;;;2.70;2.50;;;;;;;;;;5116353;28;21806;-66
2022/10/13 08:57:15;;;;;;;2.33;2.22;;;;;;;;;;5116311;28;20222;-65
2022/10/13 08:59:42;;;;;;;2.60;2.40;;;;;;;;;;5116467;28;20195;-66
2022/10/13 09:02:13;;;;;;;2.72;2.53;;;;;;;;;;5116236;28;20302;-65
2022/10/13 09:04:41;;;;;;;2.55;2.35;;;;;;;;;;5116122;28;20210;-65
2022/10/13 09:07:13;;;;;;;2.65;2.45;;;;;;;;;;5117068;28;20761;-65
2022/10/13 09:09:40;;;;;;;2.20;2.10;;;;;;;;;;5116128;28;20301;-65
2022/10/13 09:12:11;;;;;;;2.20;2.10;;;;;;;;;;5116246;28;20203;-65
2022/10/13 09:14:40;;;;;;;2.30;2.20;;;;;;;;;;5115255;28;20609;-65
2022/10/13 09:17:16;;;;;;;2.42;2.28;;;;;;;;;;5115482;28;20298;-66
2022/10/13 09:19:45;;;;;;;2.70;2.50;;;;;;;;;;5115407;28;20505;-65
2022/10/13 09:22:16;;;;;;;2.60;2.40;;;;;;;;;;5114183;28;20199;-65
2022/10/13 09:24:44;;;;;;;2.45;2.33;;;;;;;;;;5114582;28;20198;-65
2022/10/13 09:27:16;;;;;;;2.30;2.20;;;;;;;;;;5115157;28;20290;-66
2022/10/13 09:29:44;;;;;;;2.35;2.15;;;;;;;;;;5114041;28;20223;-65
2022/10/13 09:32:19;;;;;;;2.97;2.53;;;;;;;;;;5115567;28;20497;-65
2022/10/13 09:34:47;;;;;;;2.13;2.00;;;;;;;;;;5094982;28;20587;-65
2022/10/13 09:37:18;;;;;;;2.17;2.08;;;;;;;;;;5094623;28;20288;-65
2022/10/13 09:39:46;;;;;;;2.35;2.25;;;;;;;;;;5094462;28;20278;-65
2022/10/13 09:42:22;;;;;;;2.60;2.40;;;;;;;;;;5094502;28;20207;-65
2022/10/13 09:44:57;;;;;;;2.35;2.25;;;;;;;;;;5094892;28;20264;-65
2022/10/13 09:47:25;;;;;;;2.60;2.40;;;;;;;;;;5094650;28;20246;-65
2022/10/13 09:50:03;;;;;;;2.50;2.30;;;;;;;;;;5094442;28;20227;-65
2022/10/13 09:52:31;;;;;;;2.63;2.42;;;;;;;;;;5096520;28;20206;-65
2022/10/13 09:54:59;;;;;;;2.53;2.33;;;;;;;;;;5113803;28;20213;-66
2022/10/13 09:57:36;;;;;;;2.70;2.50;;;;;;;;;;5114061;28;20217;-65
2022/10/13 10:00:13;;;;;;;3.00;2.80;;;;;;;;;;5114244;28;20214;-65
2022/10/13 10:02:44;;;;;;;3.08;2.35;;;;;;;;;;5113568;28;20263;-66
2022/10/13 10:05:19;;;;;;;3.15;2.95;;;;;;;;;;5113839;28;20264;-66
2022/10/13 10:07:46;;;;;;;2.65;2.40;;;;;;;;;;5113400;28;20293;-67
2022/10/13 10:10:17;;;;;;;3.00;2.58;;;;;;;;;;5111949;28;20221;-66
2022/10/13 10:12:46;;;;;;;2.95;2.75;;;;;;;;;;5109765;28;20252;-66
2022/10/13 10:15:21;;;;;;;3.70;2.88;;;;;;;;;;5112070;28;20717;-66
2022/10/13 10:17:53;;;;;;;3.58;2.63;;;;;;;;;;5110982;28;20590;-66
2022/10/13 10:20:37;;;;;;;3.83;3.20;;;;;;;;;;5112586;28;20206;-66
2022/10/13 10:23:07;;;;;;;3.63;2.80;;;;;;;;;;5110245;28;20195;-66
2022/10/13 10:25:40;;;;;;;3.58;2.72;;;;;;;;;;5112664;28;20306;-66
2022/10/13 10:28:22;;;;;;;3.38;3.08;;;;;;;;;;5111774;28;20230;-66
2022/10/13 10:30:52;;;;;;;3.53;3.22;;;;;;;;;;5110996;28;20613;-67
2022/10/13 10:33:21;;;;;;;3.35;3.05;;;;;;;;;;5111845;28;20287;-66
2022/10/13 10:35:52;;;;;;;3.70;3.35;;;;;;;;;;5111914;28;20373;-66
2022/10/13 10:38:25;;;;;;;3.45;3.15;;;;;;;;;;5111030;28;20281;-66
2022/10/13 10:40:57;;;;;;;4.10;3.70;;;;;;;;;;5110883;28;20342;-66
2022/10/13 10:43:42;;;;;;;3.38;3.03;;;;;;;;;;5112412;28;20290;-66
2022/10/13 10:46:15;;;;;;;4.15;3.50;;;;;;;;;;5110481;28;20202;-67
2022/10/13 10:48:44;;;;;;;3.80;3.40;;;;;;;;;;5109680;28;20214;-67
2022/10/13 10:51:13;;;;;;;4.05;3.42;;;;;;;;;;5110602;28;20298;-67
2022/10/13 10:53:44;;;;;;;3.42;3.13;;;;;;;;;;5110337;28;20194;-66
2022/10/13 10:56:16;;;;;;;3.90;3.50;;;;;;;;;;5112182;28;20282;-66
2022/10/13 10:58:47;;;;;;;3.85;3.45;;;;;;;;;;5110112;28;20222;-67
2022/10/13 11:01:20;;;;;;;3.90;3.60;;;;;;;;;;5111972;28;20272;-66
2022/10/13 11:03:51;;;;;;;4.95;3.78;;;;;;;;;;5112844;28;20235;-66
2022/10/13 11:06:23;;;;;;;3.83;3.53;;;;;;;;;;5112073;28;20195;-66
2022/10/13 11:08:51;;;;;;;4.25;3.88;;;;;;;;;;5110782;28;20610;-66
2022/10/13 11:11:33;;;;;;;3.47;3.15;;;;;;;;;;5111950;28;20226;-66
2022/10/13 11:14:01;;;;;;;3.90;3.53;;;;;;;;;;5108215;28;20195;-67
2022/10/13 11:16:32;;;;;;;4.43;3.38;;;;;;;;;;5111809;28;20239;-67
2022/10/13 11:19:07;;;;;;;3.95;3.55;;;;;;;;;;5109829;28;20191;-66
2022/10/13 11:21:53;;;;;;;3.70;3.40;;;;;;;;;;5106580;28;20198;-66
2022/10/13 11:24:38;;;;;;;3.97;3.47;;;;;;;;;;5105092;28;20203;-66
2022/10/13 11:27:19;;;;;;;3.80;3.33;;;;;;;;;;5111427;28;20559;-66
2022/10/13 11:29:55;;;;;;;4.05;3.63;;;;;;;;;;5115807;28;20690;-66
2022/10/13 11:32:41;;;;;;;4.53;3.72;;;;;;;;;;5115832;28;20226;-66
2022/10/13 11:35:21;;;;;;;4.53;4.13;;;;;;;;;;5114979;28;20199;-66
2022/10/13 11:37:53;;;;;;;4.55;4.10;;;;;;;;;;5114427;28;20733;-66
2022/10/13 11:40:24;;;;;;;3.95;3.65;;;;;;;;;;5114447;28;20315;-67
2022/10/13 11:42:58;;;;;;;3.95;3.65;;;;;;;;;;5113124;28;20207;-67
2022/10/13 11:45:37;;;;;;;3.70;3.40;;;;;;;;;;5114592;28;20203;-67
2022/10/13 11:48:22;;;;;;;5.05;3.75;;;;;;;;;;5115558;28;20199;-67
2022/10/13 11:50:53;;;;;;;4.20;3.80;;;;;;;;;;5098992;28;20280;-67
2022/10/13 11:53:23;;;;;;;4.55;4.05;;;;;;;;;;5110312;28;20486;-67
2022/10/13 11:55:52;;;;;;;4.20;3.85;;;;;;;;;;5114273;28;20295;-67
2022/10/13 11:58:20;;;;;;;4.32;3.92;;;;;;;;;;5114018;28;20199;-67
2022/10/13 12:00:54;;;;;;;4.10;3.80;;;;;;;;;;5115392;28;20203;-66
2022/10/13 12:03:23;;;;;;;4.30;3.90;;;;;;;;;;5114654;28;20734;-66
2022/10/13 12:05:52;;;;;;;4.10;3.70;;;;;;;;;;5114920;28;20226;-66
2022/10/13 12:08:20;;;;;;;3.90;3.60;;;;;;;;;;5114347;28;20226;-67
2022/10/13 12:10:54;;;;;;;5.50;4.00;;;;;;;;;;5114854;28;20226;-66
2022/10/13 12:13:22;;;;;;;4.40;4.00;;;;;;;;;;5110902;28;20210;-67
2022/10/13 12:15:58;;;;;;;4.57;4.18;;;;;;;;;;5114102;28;20306;-64
2022/10/13 12:18:27;;;;;;;3.88;3.58;;;;;;;;;;5114353;28;20644;-68
2022/10/13 12:20:57;;;;;;;4.22;3.88;;;;;;;;;;5114251;28;20671;-67
2022/10/13 12:23:26;;;;;;;4.05;3.75;;;;;;;;;;5114280;28;20756;-67
2022/10/13 12:25:57;;;;;;;4.30;3.90;;;;;;;;;;5113904;28;20230;-67
2022/10/13 12:28:26;;;;;;;4.45;4.05;;;;;;;;;;5114406;28;20195;-68
2022/10/13 12:30:54;;;;;;;4.72;4.32;;;;;;;;;;5114675;28;20268;-67
2022/10/13 12:33:24;;;;;;;4.32;3.95;;;;;;;;;;5113232;28;20710;-68
2022/10/13 12:35:51;;;;;;;4.88;4.20;;;;;;;;;;5112829;28;20311;-67
2022/10/13 12:38:21;;;;;;;4.15;3.78;;;;;;;;;;5114312;28;20198;-67
2022/10/13 12:40:50;;;;;;;4.47;4.07;;;;;;;;;;5113977;28;20317;-67
2022/10/13 12:43:19;;;;;;;4.45;4.05;;;;;;;;;;5114292;28;20320;-67
2022/10/13 12:45:46;;;;;;;4.65;4.25;;;;;;;;;;5113561;28;20195;-67
2022/10/13 12:48:30;;;;;;;4.90;4.50;;;;;;;;;;5114798;28;20291;-67
2022/10/13 12:51:08;;;;;;;5.65;4.05;;;;;;;;;;5114388;28;20222;-67
2022/10/13 12:53:39;;;;;;;4.50;4.10;;;;;;;;;;5115083;28;20222;-67
2022/10/13 12:56:06;;;;;;;4.53;4.13;;;;;;;;;;5113310;28;20187;-67
2022/10/13 12:58:35;;;;;;;4.50;3.97;;;;;;;;;;5112774;28;20195;-67
2022/10/13 13:01:17;;;;;;;4.65;4.20;;;;;;;;;;5113184;28;20290;-67
2022/10/13 13:03:45;;;;;;;4.78;4.30;;;;;;;;;;5113074;28;20214;-68
2022/10/13 13:06:23;;;;;;;4.53;4.13;;;;;;;;;;5114325;28;20611;-67
2022/10/13 13:09:09;;;;;;;4.45;4.05;;;;;;;;;;5107838;28;20276;-67
2022/10/13 13:11:39;;;;;;;4.28;3.88;;;;;;;;;;5113053;28;20195;-67
2022/10/13 13:14:25;;;;;;;4.47;4.07;;;;;;;;;;5112935;28;20557;-68
2022/10/13 13:17:02;;;;;;;3.97;3.67;;;;;;;;;;5111941;28;20427;-68
2022/10/13 13:19:32;;;;;;;4.53;4.13;;;;;;;;;;5113831;28;20183;-67
2022/10/13 13:21:59;;;;;;;4.32;3.92;;;;;;;;;;5112112;28;20206;-68
2022/10/13 13:24:28;;;;;;;4.55;4.15;;;;;;;;;;5111010;28;20248;-67
2022/10/13 13:26:57;;;;;;;4.65;4.20;;;;;;;;;;5113623;28;20604;-67
2022/10/13 13:29:24;;;;;;;4.97;4.55;;;;;;;;;;5113696;28;20195;-68
2022/10/13 13:31:52;;;;;;;4.68;4.28;;;;;;;;;;5112534;28;20816;-67
2022/10/13 13:34:19;;;;;;;4.38;3.88;;;;;;;;;;5113389;28;20738;-67
2022/10/13 13:36:48;;;;;;;4.90;4.47;;;;;;;;;;5112422;28;20233;-68
2022/10/13 13:39:17;;;;;;;4.53;4.13;;;;;;;;;;5112848;28;20222;-68
2022/10/13 13:41:45;;;;;;;4.10;3.80;;;;;;;;;;5112261;28;20231;-67
2022/10/13 13:44:15;;;;;;;4.15;3.83;;;;;;;;;;5113529;28;20202;-67
2022/10/13 13:46:42;;;;;;;4.88;3.88;;;;;;;;;;5113075;28;20260;-68
2022/10/13 13:49:11;;;;;;;4.25;3.88;;;;;;;;;;5112054;28;20253;-67
2022/10/13 13:51:38;;;;;;;4.28;3.97;;;;;;;;;;5112405;28;20301;-68
2022/10/13 13:54:06;;;;;;;4.35;3.95;;;;;;;;;;5109597;28;20234;-68
2022/10/13 13:56:33;;;;;;;4.00;3.60;;;;;;;;;;5112787;28;20509;-68
2022/10/13 13:59:01;;;;;;;4.70;4.25;;;;;;;;;;5113832;27;20278;-67
2022/10/13 14:01:31;;;;;;;4.72;4.07;;;;;;;;;;5113395;28;20541;-68
2022/10/13 14:04:01;;;;;;;4.30;3.95;;;;;;;;;;5110603;28;20219;-68
2022/10/13 14:06:31;;;;;;;4.20;3.90;;;;;;;;;;5105249;28;20234;-67
2022/10/13 14:09:01;;;;;;;4.22;3.83;;;;;;;;;;5111646;28;20203;-67
2022/10/13 14:11:29;;;;;;;4.30;3.90;;;;;;;;;;5112363;28;20229;-68
2022/10/13 14:14:00;;;;;;;3.95;3.65;;;;;;;;;;5112285;28;20273;-68
2022/10/13 14:16:28;;;;;;;4.20;3.88;;;;;;;;;;5112212;28;20195;-67
2022/10/13 14:18:59;;;;;;;4.15;3.75;;;;;;;;;;5111713;28;20199;-68
2022/10/13 14:21:26;;;;;;;3.88;3.58;;;;;;;;;;5112825;28;20195;-67
2022/10/13 14:23:54;;;;;;;4.57;4.18;;;;;;;;;;5112730;28;20535;-67
2022/10/13 14:26:22;;;;;;;4.20;3.80;;;;;;;;;;5113105;28;20195;-67
2022/10/13 14:28:51;;;;;;;4.13;3.75;;;;;;;;;;5112750;28;20209;-67
2022/10/13 14:31:18;;;;;;;3.95;3.65;;;;;;;;;;5112124;28;20728;-67
2022/10/13 14:33:46;;;;;;;4.18;3.78;;;;;;;;;;5112556;28;20577;-67
2022/10/13 14:36:15;;;;;;;4.50;4.10;;;;;;;;;;5111507;28;20192;-67
2022/10/13 14:38:43;;;;;;;4.38;3.97;;;;;;;;;;5112719;28;20219;-68
2022/10/13 14:41:11;;;;;;;4.18;3.78;;;;;;;;;;5111842;28;20223;-68
2022/10/13 14:43:38;;;;;;;4.32;3.92;;;;;;;;;;5111767;28;20195;-68
2022/10/13 14:46:06;;;;;;;4.38;3.97;;;;;;;;;;5111210;28;20195;-67
2022/10/13 14:48:34;;;;;;;3.97;3.67;;;;;;;;;;5110771;28;20306;-67
2022/10/13 14:51:05;;;;;;;4.70;3.50;;;;;;;;;;5110724;28;20258;-67
2022/10/13 14:53:34;;;;;;;3.92;3.63;;;;;;;;;;5112600;28;20623;-68
2022/10/13 14:56:02;;;;;;;3.70;3.40;;;;;;;;;;5111820;28;20275;-68
2022/10/13 14:58:30;;;;;;;3.90;3.60;;;;;;;;;;5111914;28;20229;-67